Time;durP1;ratioP1;P1;durP2;ratioP2;P2;SDS_P1;SDS_P2;PMS_P1;PMS_P2;Temp;Humidity;BMP_temperature;BMP_pressure;BME280_temperature;BME280_humidity;BME280_pressure;Samples;Min_cycle;Max_cycle;Signal;HPM_P1;HPM_P2
2022/08/07 00:00:49;;;;;;;13.75;6.85;;;;;;;;;;6299400;28;20167;-80
2022/08/07 00:03:51;;;;;;;16.83;7.07;;;;;;;;;;6300211;28;20048;-80
2022/08/07 00:06:55;;;;;;;14.93;6.80;;;;;;;;;;6308215;28;20048;-80
2022/08/07 00:10:02;;;;;;;14.55;6.15;;;;;;;;;;6290729;28;20057;-81
2022/08/07 00:13:24;;;;;;;13.38;5.90;;;;;;;;;;6297518;28;20043;-80
2022/08/07 00:16:27;;;;;;;;;;;;;;;;;;6296196;28;20032;-80
2022/08/07 00:19:30;;;;;;;11.40;4.93;;;;;;;;;;6320707;28;20535;-80
2022/08/07 00:22:52;;;;;;;13.65;6.32;;;;;;;;;;6285201;28;20045;-80
2022/08/07 00:25:54;;;;;;;14.00;7.00;;;;;;;;;;6300712;28;20045;-80
2022/08/07 00:29:03;;;;;;;15.82;6.40;;;;;;;;;;6318308;28;20520;-80
2022/08/07 00:32:06;;;;;;;17.20;6.13;;;;;;;;;;6287057;28;20101;-80
2022/08/07 00:35:08;;;;;;;14.30;6.38;;;;;;;;;;6307025;28;20388;-80
2022/08/07 00:38:10;;;;;;;9.82;5.25;;;;;;;;;;6277168;28;20044;-80
2022/08/07 00:41:13;;;;;;;13.80;5.70;;;;;;;;;;6305303;28;20055;-80
2022/08/07 00:44:15;;;;;;;12.35;4.82;;;;;;;;;;6292010;28;20050;-80
2022/08/07 00:47:18;;;;;;;9.13;4.45;;;;;;;;;;6291282;28;20084;-80
2022/08/07 00:50:41;;;;;;;11.07;4.85;;;;;;;;;;6278815;28;21513;-80
2022/08/07 00:53:52;;;;;;;7.72;3.88;;;;;;;;;;6282392;28;20040;-80
2022/08/07 00:56:56;;;;;;;9.70;4.80;;;;;;;;;;6306573;28;20052;-80
2022/08/07 00:59:58;;;;;;;10.25;4.82;;;;;;;;;;6306543;28;20131;-81
2022/08/07 01:03:00;;;;;;;9.15;4.88;;;;;;;;;;6320315;28;20124;-80
2022/08/07 01:06:02;;;;;;;7.45;4.55;;;;;;;;;;6299323;28;20418;-80
2022/08/07 01:09:04;;;;;;;8.85;4.00;;;;;;;;;;6296642;28;20530;-80
2022/08/07 01:12:08;;;;;;;7.60;4.28;;;;;;;;;;6310412;28;20502;-80
2022/08/07 01:15:32;;;;;;;6.35;3.83;;;;;;;;;;6294315;28;20052;-79
2022/08/07 01:18:54;;;;;;;7.13;4.00;;;;;;;;;;6294856;28;20048;-80
2022/08/07 01:21:58;;;;;;;5.20;3.60;;;;;;;;;;6286449;28;20052;-80
2022/08/07 01:25:10;;;;;;;7.43;4.40;;;;;;;;;;6305548;28;20727;-78
2022/08/07 01:28:32;;;;;;;6.72;4.07;;;;;;;;;;6305899;28;20044;-80
2022/08/07 01:31:34;;;;;;;5.63;3.65;;;;;;;;;;6315230;28;20050;-80
2022/08/07 01:34:49;;;;;;;6.68;4.10;;;;;;;;;;6303689;28;20043;-80
2022/08/07 01:37:52;;;;;;;8.05;4.30;;;;;;;;;;6291887;28;20040;-80
2022/08/07 01:40:58;;;;;;;8.47;4.50;;;;;;;;;;6303243;28;20040;-80
2022/08/07 01:44:02;;;;;;;8.70;4.20;;;;;;;;;;6285524;28;20056;-80
2022/08/07 01:47:08;;;;;;;8.00;3.95;;;;;;;;;;6283685;28;20124;-80
2022/08/07 01:50:30;;;;;;;6.28;3.90;;;;;;;;;;6304690;28;20111;-80
2022/08/07 01:53:35;;;;;;;6.78;4.10;;;;;;;;;;6320417;28;20085;-80
2022/08/07 01:57:24;;;;;;;8.65;4.53;;;;;;;;;;6300712;28;20056;-80
2022/08/07 02:00:30;;;;;;;8.48;5.10;;;;;;;;;;6284495;28;20045;-80
2022/08/07 02:03:36;;;;;;;7.35;5.45;;;;;;;;;;6300527;28;20066;-80
2022/08/07 02:06:55;;;;;;;7.30;5.32;;;;;;;;;;6284038;28;20124;-79
2022/08/07 02:10:00;;;;;;;7.65;6.28;;;;;;;;;;6300683;28;20047;-80
2022/08/07 02:13:05;;;;;;;9.85;7.40;;;;;;;;;;6282071;28;20190;-79
2022/08/07 02:16:23;;;;;;;9.80;7.00;;;;;;;;;;6279556;28;20040;-79
2022/08/07 02:19:35;;;;;;;6.57;4.78;;;;;;;;;;6301343;28;20054;-80
2022/08/07 02:23:00;;;;;;;10.60;4.60;;;;;;;;;;6305736;28;20052;-80
2022/08/07 02:26:05;;;;;;;8.00;4.95;;;;;;;;;;6292141;28;20039;-80
2022/08/07 02:29:29;;;;;;;7.25;4.57;;;;;;;;;;6298118;28;20117;-80
2022/08/07 02:32:35;;;;;;;6.65;4.75;;;;;;;;;;6279398;28;20506;-80
2022/08/07 02:35:42;;;;;;;7.43;5.32;;;;;;;;;;6294276;28;20474;-80
2022/08/07 02:39:07;;;;;;;9.82;5.53;;;;;;;;;;6302047;28;20055;-80
2022/08/07 02:42:31;;;;;;;6.75;5.07;;;;;;;;;;6289081;28;20113;-80
2022/08/07 02:45:37;;;;;;;8.43;4.80;;;;;;;;;;6293114;28;20052;-80
2022/08/07 02:48:59;;;;;;;8.95;5.80;;;;;;;;;;6305013;28;20100;-80
2022/08/07 02:52:12;;;;;;;9.93;6.43;;;;;;;;;;6297591;28;20071;-80
2022/08/07 02:55:24;;;;;;;8.38;6.82;;;;;;;;;;6295404;28;20044;-80
2022/08/07 02:58:48;;;;;;;9.35;7.00;;;;;;;;;;6289595;28;20863;-80
2022/08/07 03:01:53;;;;;;;8.65;7.40;;;;;;;;;;6322823;28;20051;-80
2022/08/07 03:04:59;;;;;;;8.35;6.80;;;;;;;;;;6289512;28;20045;-80
2022/08/07 03:08:07;;;;;;;9.63;6.18;;;;;;;;;;6293246;28;20054;-80
2022/08/07 03:11:16;;;;;;;8.85;6.90;;;;;;;;;;6308176;28;20730;-80
2022/08/07 03:14:19;;;;;;;10.88;5.90;;;;;;;;;;6301333;28;20044;-81
2022/08/07 03:17:24;;;;;;;7.28;5.00;;;;;;;;;;6297065;28;20124;-80
2022/08/07 03:20:28;;;;;;;5.93;4.80;;;;;;;;;;6285214;28;20058;-81
2022/08/07 03:23:31;;;;;;;8.38;4.90;;;;;;;;;;6278554;28;20044;-80
2022/08/07 03:26:58;;;;;;;8.00;4.95;;;;;;;;;;6289989;28;20044;-80
2022/08/07 03:30:08;;;;;;;8.10;5.78;;;;;;;;;;6279906;28;20049;-81
2022/08/07 03:33:16;;;;;;;8.70;6.13;;;;;;;;;;6290510;28;20090;-80
2022/08/07 03:36:24;;;;;;;8.60;6.18;;;;;;;;;;6293812;28;20044;-80
2022/08/07 03:39:30;;;;;;;9.52;6.47;;;;;;;;;;6287739;28;20040;-80
2022/08/07 03:42:52;;;;;;;6.95;5.47;;;;;;;;;;6306657;28;20044;-81
2022/08/07 03:45:56;;;;;;;7.75;5.68;;;;;;;;;;6300364;28;20050;-80
2022/08/07 03:49:00;;;;;;;8.15;6.22;;;;;;;;;;6288398;28;20040;-81
2022/08/07 03:52:10;;;;;;;10.50;6.80;;;;;;;;;;6288626;28;20041;-80
2022/08/07 03:55:23;;;;;;;10.98;7.05;;;;;;;;;;6312392;28;20051;-81
2022/08/07 03:58:47;;;;;;;12.77;7.50;;;;;;;;;;6308873;28;20051;-81
2022/08/07 04:02:09;;;;;;;11.75;7.95;;;;;;;;;;6307666;28;20048;-84
2022/08/07 04:05:19;;;;;;;9.93;5.63;;;;;;;;;;6289001;28;20044;-84
2022/08/07 04:08:44;;;;;;;11.18;7.05;;;;;;;;;;6291716;28;20414;-84
2022/08/07 04:11:50;;;;;;;9.10;5.78;;;;;;;;;;6291572;28;20143;-84
2022/08/07 04:15:14;;;;;;;8.10;4.90;;;;;;;;;;6277367;28;20039;-83
2022/08/07 04:18:17;;;;;;;7.88;5.07;;;;;;;;;;6288389;28;20494;-85
2022/08/07 04:21:40;;;;;;;10.82;6.78;;;;;;;;;;6287783;28;20043;-83
2022/08/07 04:25:07;;;;;;;10.70;6.68;;;;;;;;;;6249377;28;20186;-82
2022/08/07 04:28:16;;;;;;;10.60;6.75;;;;;;;;;;6275104;28;20506;-84
2022/08/07 04:31:23;;;;;;;9.65;6.78;;;;;;;;;;6285794;28;20051;-82
2022/08/07 04:34:49;;;;;;;9.70;6.60;;;;;;;;;;6281836;28;20044;-83
2022/08/07 04:37:55;;;;;;;10.68;6.10;;;;;;;;;;6305121;28;20040;-82
2022/08/07 04:41:08;;;;;;;9.52;6.00;;;;;;;;;;6292955;28;20056;-82
2022/08/07 04:44:20;;;;;;;9.32;6.18;;;;;;;;;;6268163;28;20182;-82
2022/08/07 04:47:32;;;;;;;6.22;4.78;;;;;;;;;;6315082;28;20070;-82
2022/08/07 04:51:18;;;;;;;5.82;4.57;;;;;;;;;;6277769;28;20514;-83
2022/08/07 04:54:32;;;;;;;5.97;4.40;;;;;;;;;;6287670;28;20059;-82
2022/08/07 04:57:59;;;;;;;6.00;4.25;;;;;;;;;;6271799;28;20047;-82
2022/08/07 05:01:45;;;;;;;5.80;4.00;;;;;;;;;;6295348;28;20156;-83
2022/08/07 05:05:16;;;;;;;6.75;4.43;;;;;;;;;;6276215;28;20135;-83
2022/08/07 05:09:03;;;;;;;7.25;4.18;;;;;;;;;;6291894;28;20051;-83
2022/08/07 05:12:16;;;;;;;5.75;4.13;;;;;;;;;;6300652;28;20051;-83
2022/08/07 05:15:35;;;;;;;5.80;4.30;;;;;;;;;;6302456;28;20051;-83
2022/08/07 05:19:02;;;;;;;5.20;3.85;;;;;;;;;;6273910;28;20048;-83
2022/08/07 05:22:08;;;;;;;4.93;3.65;;;;;;;;;;6297502;28;20053;-82
2022/08/07 05:25:16;;;;;;;9.45;5.43;;;;;;;;;;6289632;28;20051;-83
2022/08/07 05:28:40;;;;;;;4.88;3.50;;;;;;;;;;6279733;28;20043;-82
2022/08/07 05:31:50;;;;;;;4.95;3.10;;;;;;;;;;6298378;28;20628;-83
2022/08/07 05:34:59;;;;;;;5.55;3.28;;;;;;;;;;6285845;28;20074;-83
2022/08/07 05:38:05;;;;;;;3.85;3.25;;;;;;;;;;6281085;28;20055;-83
2022/08/07 05:41:12;;;;;;;3.42;3.13;;;;;;;;;;6293131;28;20360;-83
2022/08/07 05:44:22;;;;;;;2.90;2.50;;;;;;;;;;6286795;28;20490;-83
2022/08/07 05:47:33;;;;;;;3.45;2.63;;;;;;;;;;6299671;28;20349;-83
2022/08/07 05:50:58;;;;;;;3.83;2.60;;;;;;;;;;6288864;28;20040;-83
2022/08/07 05:54:03;;;;;;;3.13;2.50;;;;;;;;;;6265534;28;20093;-83
2022/08/07 05:57:25;;;;;;;3.47;2.42;;;;;;;;;;6289987;28;20751;-83
2022/08/07 06:00:37;;;;;;;3.40;2.70;;;;;;;;;;6273127;28;20090;-84
2022/08/07 06:03:54;;;;;;;3.70;2.47;;;;;;;;;;6273727;28;20054;-84
2022/08/07 06:07:08;;;;;;;4.53;2.60;;;;;;;;;;6295343;28;21084;-85
2022/08/07 06:10:27;;;;;;;2.65;2.30;;;;;;;;;;6307095;28;20040;-84
2022/08/07 06:13:29;;;;;;;2.40;2.20;;;;;;;;;;6271680;28;20040;-84
2022/08/07 06:16:59;;;;;;;2.38;1.85;;;;;;;;;;6265220;28;20430;-84
2022/08/07 06:20:13;;;;;;;4.15;2.42;;;;;;;;;;6245854;28;20042;-82
2022/08/07 06:23:38;;;;;;;3.15;1.85;;;;;;;;;;6300662;28;20058;-83
2022/08/07 06:27:03;;;;;;;4.18;2.22;;;;;;;;;;6265222;28;20051;-83
2022/08/07 06:30:09;;;;;;;3.95;1.92;;;;;;;;;;6268756;28;20155;-83
2022/08/07 06:33:31;;;;;;;3.30;2.33;;;;;;;;;;6280556;28;20775;-83
2022/08/07 06:36:33;;;;;;;3.35;2.10;;;;;;;;;;6270986;28;20127;-83
2022/08/07 06:39:38;;;;;;;2.00;1.80;;;;;;;;;;6265363;28;20060;-83
2022/08/07 06:43:04;;;;;;;2.30;1.50;;;;;;;;;;6308831;28;20052;-82
2022/08/07 06:46:29;;;;;;;1.73;1.60;;;;;;;;;;6298364;28;20044;-82
2022/08/07 06:49:36;;;;;;;1.60;1.50;;;;;;;;;;6290508;28;20044;-84
2022/08/07 06:53:00;;;;;;;;;;;;;;;;;;6308458;28;20528;-82
2022/08/07 06:56:07;;;;;;;1.27;1.17;;;;;;;;;;6295594;28;20044;-82
2022/08/07 06:59:24;;;;;;;;;;;;;;;;;;6303857;28;20099;-82
2022/08/07 07:02:47;;;;;;;1.48;0.90;;;;;;;;;;6324086;28;19927;-82
2022/08/07 07:05:57;;;;;;;1.23;1.13;;;;;;;;;;6294970;28;20089;-82
2022/08/07 07:09:37;;;;;;;4.93;1.00;;;;;;;;;;6305399;28;20044;-82
2022/08/07 07:12:46;;;;;;;3.03;1.00;;;;;;;;;;6299805;28;20036;-82
2022/08/07 07:15:59;;;;;;;1.55;1.02;;;;;;;;;;6306537;28;20045;-81
2022/08/07 07:19:05;;;;;;;1.08;0.90;;;;;;;;;;6310075;28;20051;-82
2022/08/07 07:22:28;;;;;;;1.77;1.00;;;;;;;;;;6328376;28;20062;-80
2022/08/07 07:25:42;;;;;;;1.13;0.80;;;;;;;;;;6320830;28;20246;-80
2022/08/07 07:29:12;;;;;;;1.05;0.70;;;;;;;;;;6331400;28;20047;-82
2022/08/07 07:32:37;;;;;;;1.00;0.70;;;;;;;;;;6312194;28;20059;-80
2022/08/07 07:35:44;;;;;;;1.30;0.60;;;;;;;;;;6268549;28;20044;-81
2022/08/07 07:39:07;;;;;;;0.65;0.60;;;;;;;;;;6295059;28;20041;-80
2022/08/07 07:42:11;;;;;;;1.52;0.52;;;;;;;;;;6307034;28;20121;-81
2022/08/07 07:45:21;;;;;;;1.02;0.70;;;;;;;;;;6309815;28;20044;-83
2022/08/07 07:48:46;;;;;;;1.83;0.60;;;;;;;;;;6293434;28;20040;-82
2022/08/07 07:51:51;;;;;;;2.08;0.60;;;;;;;;;;6313343;28;20501;-83
2022/08/07 07:55:00;;;;;;;0.93;0.50;;;;;;;;;;6274645;28;20519;-83
2022/08/07 07:58:04;;;;;;;0.40;0.40;;;;;;;;;;6294387;28;20060;-81
2022/08/07 08:01:08;;;;;;;1.02;0.50;;;;;;;;;;6308842;28;20038;-81
2022/08/07 08:04:32;;;;;;;1.63;0.52;;;;;;;;;;6294483;28;20131;-82
2022/08/07 08:07:36;;;;;;;0.55;0.50;;;;;;;;;;6297378;28;20040;-82
2022/08/07 08:10:59;;;;;;;1.33;0.52;;;;;;;;;;6296437;28;20052;-81
2022/08/07 08:14:01;;;;;;;0.75;0.40;;;;;;;;;;6291857;28;20043;-82
2022/08/07 08:17:08;;;;;;;0.68;0.50;;;;;;;;;;6320176;28;20063;-82
2022/08/07 08:20:33;;;;;;;0.82;0.35;;;;;;;;;;6309457;28;20410;-82
2022/08/07 08:27:10;;;;;;;1.70;0.50;;;;;;;;;;6282548;28;20056;-82
2022/08/07 08:30:13;;;;;;;0.93;0.40;;;;;;;;;;6294759;28;20054;-83
2022/08/07 08:33:23;;;;;;;1.95;0.50;;;;;;;;;;6313633;28;20043;-83
2022/08/07 08:36:31;;;;;;;1.05;0.55;;;;;;;;;;6283030;28;20064;-83
2022/08/07 08:39:35;;;;;;;0.28;0.28;;;;;;;;;;6309469;28;20040;-83
2022/08/07 08:43:09;;;;;;;0.73;0.50;;;;;;;;;;6301088;28;20044;-83
2022/08/07 08:46:39;;;;;;;1.77;0.50;;;;;;;;;;6293762;28;20104;-82
2022/08/07 08:50:00;;;;;;;0.40;0.40;;;;;;;;;;6282643;28;20051;-83
2022/08/07 08:53:21;;;;;;;0.57;0.40;;;;;;;;;;6303825;28;20057;-82
2022/08/07 08:56:42;;;;;;;0.82;0.40;;;;;;;;;;6313835;28;20047;-82
2022/08/07 09:00:02;;;;;;;0.40;0.40;;;;;;;;;;6287624;28;20040;-82
2022/08/07 09:03:18;;;;;;;1.23;0.50;;;;;;;;;;6300045;28;20495;-81
2022/08/07 09:06:34;;;;;;;1.35;0.43;;;;;;;;;;6299748;28;20059;-81
2022/08/07 09:09:57;;;;;;;1.08;0.50;;;;;;;;;;6315442;28;20036;-79
2022/08/07 09:13:11;;;;;;;0.40;0.40;;;;;;;;;;6308768;28;20071;-80
2022/08/07 09:16:46;;;;;;;1.08;0.40;;;;;;;;;;6306703;28;20035;-79
2022/08/07 09:20:06;;;;;;;4.30;1.48;;;;;;;;;;6317413;28;20052;-79
2022/08/07 09:24:19;;;;;;;2.33;1.35;;;;;;;;;;6284776;28;20036;-81
2022/08/07 09:27:54;;;;;;;0.73;0.40;;;;;;;;;;6246729;28;20593;-79
2022/08/07 09:31:13;;;;;;;1.33;0.50;;;;;;;;;;6303884;28;20045;-79
2022/08/07 09:34:35;;;;;;;2.70;0.98;;;;;;;;;;6312368;28;20048;-78
2022/08/07 09:37:43;;;;;;;3.17;1.50;;;;;;;;;;6319972;28;20181;-78
2022/08/07 09:41:19;;;;;;;13.68;12.48;;;;;;;;;;6310047;28;20443;-76
2022/08/07 09:44:37;;;;;;;29.05;17.55;;;;;;;;;;6299279;28;20046;-78
2022/08/07 09:48:19;;;;;;;1.05;0.38;;;;;;;;;;6302476;28;20683;-78
2022/08/07 09:51:58;;;;;;;75.65;65.10;;;;;;;;;;6263711;28;20380;-81
2022/08/07 09:55:24;;;;;;;6.40;4.10;;;;;;;;;;6295833;28;20047;-79
2022/08/07 09:58:55;;;;;;;1.90;1.40;;;;;;;;;;6319869;28;20050;-77
2022/08/07 10:01:59;;;;;;;274.75;207.75;;;;;;;;;;6312692;28;20498;-80
2022/08/07 10:05:25;;;;;;;0.70;0.60;;;;;;;;;;6321624;28;20130;-79
2022/08/07 10:09:06;;;;;;;4.28;2.40;;;;;;;;;;6303434;28;20044;-80
2022/08/07 10:12:27;;;;;;;2.55;1.50;;;;;;;;;;6296733;28;20053;-80
2022/08/07 10:16:03;;;;;;;1.13;0.40;;;;;;;;;;6296941;28;20035;-79
2022/08/07 10:19:26;;;;;;;1.02;0.60;;;;;;;;;;6310256;28;20048;-80
2022/08/07 10:22:45;;;;;;;1.27;0.63;;;;;;;;;;6317118;28;20048;-79
2022/08/07 10:26:11;;;;;;;11.55;6.03;;;;;;;;;;6312440;28;20052;-80
2022/08/07 10:29:34;;;;;;;1.35;0.50;;;;;;;;;;6301254;28;20048;-79
2022/08/07 10:33:19;;;;;;;2.70;0.57;;;;;;;;;;6304651;28;20032;-79
2022/08/07 10:37:05;;;;;;;0.30;0.30;;;;;;;;;;6321744;28;20108;-79
2022/08/07 10:40:29;;;;;;;1.63;0.75;;;;;;;;;;6310097;28;20036;-77
2022/08/07 10:43:50;;;;;;;2.17;0.63;;;;;;;;;;6285036;28;20036;-81
2022/08/07 10:47:19;;;;;;;1.52;0.52;;;;;;;;;;6305026;28;20085;-80
2022/08/07 10:50:47;;;;;;;0.88;0.50;;;;;;;;;;6291909;28;20052;-81
2022/08/07 10:53:59;;;;;;;0.73;0.50;;;;;;;;;;6310148;28;20067;-82
2022/08/07 10:57:30;;;;;;;0.60;0.60;;;;;;;;;;6304395;28;20122;-80
2022/08/07 11:00:48;;;;;;;0.47;0.47;;;;;;;;;;6320420;28;20059;-80
2022/08/07 11:04:27;;;;;;;0.75;0.52;;;;;;;;;;6311379;28;20043;-80
2022/08/07 11:07:56;;;;;;;1.33;0.57;;;;;;;;;;6309422;28;20097;-80
2022/08/07 11:11:35;;;;;;;0.88;0.60;;;;;;;;;;6329260;28;20059;-81
2022/08/07 11:14:42;;;;;;;1.73;0.60;;;;;;;;;;6296305;28;20048;-79
2022/08/07 11:18:28;;;;;;;0.50;0.50;;;;;;;;;;6308717;28;22069;-80
2022/08/07 11:21:35;;;;;;;0.85;0.32;;;;;;;;;;6323656;28;20090;-80
2022/08/07 11:25:21;;;;;;;0.70;0.45;;;;;;;;;;6322489;28;20043;-80
2022/08/07 11:28:37;;;;;;;1.33;0.60;;;;;;;;;;6320277;28;20058;-79
2022/08/07 11:31:52;;;;;;;0.55;0.55;;;;;;;;;;6310301;28;20094;-80
2022/08/07 11:35:02;;;;;;;0.52;0.47;;;;;;;;;;6313517;28;20907;-79
2022/08/07 11:38:16;;;;;;;1.25;0.50;;;;;;;;;;6321295;28;20069;-79
2022/08/07 11:41:23;;;;;;;0.40;0.40;;;;;;;;;;6296270;28;20052;-79
2022/08/07 11:45:01;;;;;;;1.17;0.50;;;;;;;;;;6297195;28;20048;-77
2022/08/07 11:48:15;;;;;;;0.85;0.40;;;;;;;;;;6304410;28;20044;-77
2022/08/07 11:51:42;;;;;;;0.82;0.60;;;;;;;;;;6314817;28;20054;-77
2022/08/07 11:55:28;;;;;;;1.38;0.57;;;;;;;;;;6294204;28;20071;-77
2022/08/07 11:59:05;;;;;;;1.63;0.60;;;;;;;;;;6270866;28;20048;-77
2022/08/07 12:02:45;;;;;;;0.68;0.40;;;;;;;;;;6285016;28;20128;-77
2022/08/07 12:05:56;;;;;;;0.50;0.40;;;;;;;;;;6308711;28;20039;-77
2022/08/07 12:09:13;;;;;;;0.40;0.40;;;;;;;;;;6288936;28;20086;-77
2022/08/07 12:12:22;;;;;;;1.52;0.40;;;;;;;;;;6302937;28;20056;-77
2022/08/07 12:15:30;;;;;;;2.08;0.68;;;;;;;;;;6309400;28;20047;-78
2022/08/07 12:19:35;;;;;;;2.83;0.50;;;;;;;;;;6308486;28;20683;-77
2022/08/07 12:23:13;;;;;;;1.38;0.40;;;;;;;;;;6296590;28;20044;-77
2022/08/07 12:26:24;;;;;;;1.17;0.60;;;;;;;;;;6276511;28;20597;-77
2022/08/07 12:29:45;;;;;;;1.10;0.50;;;;;;;;;;6308586;28;20039;-77
2022/08/07 12:33:01;;;;;;;1.92;0.45;;;;;;;;;;6310384;28;20044;-77
2022/08/07 12:36:20;;;;;;;1.30;0.40;;;;;;;;;;6296601;28;20087;-78
2022/08/07 12:39:38;;;;;;;0.50;0.40;;;;;;;;;;6309588;28;20047;-77
2022/08/07 12:42:52;;;;;;;1.05;0.50;;;;;;;;;;6311474;28;20111;-78
2022/08/07 12:46:03;;;;;;;1.40;0.45;;;;;;;;;;6307559;28;20073;-78
2022/08/07 12:49:20;;;;;;;1.30;0.40;;;;;;;;;;6309470;28;20113;-79
2022/08/07 12:53:03;;;;;;;1.25;0.40;;;;;;;;;;6302275;28;20714;-76
2022/08/07 12:56:20;;;;;;;;;;;;;;;;;;6307957;28;20031;-76
2022/08/07 12:59:29;;;;;;;1.38;0.55;;;;;;;;;;6311225;28;20699;-76
2022/08/07 13:03:11;;;;;;;0.73;0.45;;;;;;;;;;6295565;28;20041;-77
2022/08/07 13:06:42;;;;;;;0.85;0.40;;;;;;;;;;6283573;28;20132;-78
2022/08/07 13:10:30;;;;;;;0.52;0.32;;;;;;;;;;6298525;28;20047;-77
2022/08/07 13:13:53;;;;;;;0.90;0.50;;;;;;;;;;6304516;28;20135;-77
2022/08/07 13:17:08;;;;;;;1.10;0.40;;;;;;;;;;6303473;28;20056;-77
2022/08/07 13:20:29;;;;;;;0.80;0.70;;;;;;;;;;6311937;28;20043;-77
2022/08/07 13:23:43;;;;;;;2.42;1.35;;;;;;;;;;6303897;28;20131;-77
2022/08/07 13:27:13;;;;;;;0.50;0.50;;;;;;;;;;6306697;28;20492;-77
2022/08/07 13:30:23;;;;;;;0.45;0.45;;;;;;;;;;6279059;28;20040;-77
2022/08/07 13:33:56;;;;;;;0.75;0.50;;;;;;;;;;6307399;28;20043;-77
2022/08/07 13:37:24;;;;;;;0.40;0.40;;;;;;;;;;6310246;28;20047;-76
2022/08/07 13:40:54;;;;;;;0.75;0.50;;;;;;;;;;6305017;28;20051;-77
2022/08/07 13:44:00;;;;;;;0.82;0.50;;;;;;;;;;6254777;28;20044;-76
2022/08/07 13:47:05;;;;;;;0.60;0.60;;;;;;;;;;6303681;28;20044;-76
2022/08/07 13:50:12;;;;;;;0.50;0.40;;;;;;;;;;6274117;28;20043;-76
2022/08/07 13:53:43;;;;;;;0.47;0.47;;;;;;;;;;6296377;28;20070;-76
2022/08/07 13:57:11;;;;;;;0.32;0.30;;;;;;;;;;6315114;28;20414;-77
2022/08/07 14:00:33;;;;;;;0.68;0.30;;;;;;;;;;6312970;28;20051;-77
2022/08/07 14:03:41;;;;;;;0.50;0.50;;;;;;;;;;6313007;28;20040;-76
2022/08/07 14:07:07;;;;;;;0.50;0.50;;;;;;;;;;6296090;28;20530;-78
2022/08/07 14:10:11;;;;;;;0.82;0.52;;;;;;;;;;6291528;28;20063;-76
2022/08/07 14:13:30;;;;;;;1.25;0.50;;;;;;;;;;6303614;28;20687;-76
2022/08/07 14:16:38;;;;;;;0.40;0.40;;;;;;;;;;6299900;28;20039;-76
2022/08/07 14:20:25;;;;;;;0.50;0.50;;;;;;;;;;6290145;28;20040;-76
2022/08/07 14:23:57;;;;;;;0.57;0.40;;;;;;;;;;6285723;28;20051;-76
2022/08/07 14:27:06;;;;;;;0.55;0.40;;;;;;;;;;6321992;28;20113;-76
2022/08/07 14:30:29;;;;;;;0.47;0.40;;;;;;;;;;6308040;28;20044;-76
2022/08/07 14:33:52;;;;;;;1.10;0.63;;;;;;;;;;6308567;28;20064;-80
2022/08/07 14:37:00;;;;;;;1.45;0.70;;;;;;;;;;6321722;28;20421;-76
2022/08/07 14:40:11;;;;;;;0.68;0.60;;;;;;;;;;6321567;28;20121;-78
2022/08/07 14:43:28;;;;;;;;;;;;;;;;;;6328968;28;20074;-80
2022/08/07 14:46:54;;;;;;;0.85;0.50;;;;;;;;;;6329097;28;19951;-79
2022/08/07 14:50:17;;;;;;;0.73;0.60;;;;;;;;;;6298131;28;20521;-79
2022/08/07 14:53:22;;;;;;;0.60;0.50;;;;;;;;;;6318778;28;20101;-78
2022/08/07 14:56:48;;;;;;;0.82;0.40;;;;;;;;;;6309086;28;20043;-80
2022/08/07 14:59:52;;;;;;;1.40;0.50;;;;;;;;;;6317222;28;20400;-74
2022/08/07 15:03:08;;;;;;;0.55;0.30;;;;;;;;;;6317485;28;20063;-79
2022/08/07 15:06:33;;;;;;;1.42;0.50;;;;;;;;;;6303840;28;20036;-79
2022/08/07 15:09:41;;;;;;;0.40;0.40;;;;;;;;;;6289423;28;20488;-78
2022/08/07 15:13:09;;;;;;;2.30;0.50;;;;;;;;;;6316994;28;20132;-80
2022/08/07 15:16:14;;;;;;;0.65;0.50;;;;;;;;;;6300555;28;20052;-81
2022/08/07 15:19:37;;;;;;;0.40;0.40;;;;;;;;;;6328731;28;20080;-78
2022/08/07 15:23:00;;;;;;;1.05;0.30;;;;;;;;;;6319251;28;20058;-82
2022/08/07 15:26:34;;;;;;;0.40;0.40;;;;;;;;;;6322789;28;20044;-77
2022/08/07 15:29:39;;;;;;;0.68;0.40;;;;;;;;;;6293315;28;20043;-78
2022/08/07 15:33:03;;;;;;;0.70;0.40;;;;;;;;;;6323971;28;20051;-80
2022/08/07 15:36:22;;;;;;;0.50;0.50;;;;;;;;;;6315901;28;20414;-79
2022/08/07 15:39:51;;;;;;;0.47;0.47;;;;;;;;;;6312149;28;20047;-81
2022/08/07 15:43:22;;;;;;;1.25;0.65;;;;;;;;;;6308330;28;20050;-83
2022/08/07 15:46:48;;;;;;;0.85;0.47;;;;;;;;;;6298053;28;20044;-81
2022/08/07 15:50:15;;;;;;;0.68;0.57;;;;;;;;;;6303052;28;20059;-81
2022/08/07 15:53:40;;;;;;;0.57;0.57;;;;;;;;;;6314876;28;20059;-82
2022/08/07 15:56:58;;;;;;;0.50;0.50;;;;;;;;;;6316091;28;20035;-80
2022/08/07 16:00:03;;;;;;;0.73;0.50;;;;;;;;;;6299148;28;20129;-79
2022/08/07 16:03:30;;;;;;;0.40;0.40;;;;;;;;;;6284737;28;20109;-80
2022/08/07 16:06:56;;;;;;;0.82;0.50;;;;;;;;;;6315556;28;20040;-81
2022/08/07 16:10:10;;;;;;;0.57;0.55;;;;;;;;;;6303378;28;20056;-84
2022/08/07 16:13:18;;;;;;;2.13;0.70;;;;;;;;;;6307557;28;20044;-80
2022/08/07 16:17:09;;;;;;;1.48;0.52;;;;;;;;;;6299798;28;20542;-80
2022/08/07 16:20:40;;;;;;;0.95;0.60;;;;;;;;;;6317786;28;20410;-80
2022/08/07 16:24:10;;;;;;;1.30;0.50;;;;;;;;;;6312569;28;20154;-82
2022/08/07 16:27:46;;;;;;;0.50;0.50;;;;;;;;;;6288307;28;20147;-80
2022/08/07 16:31:35;;;;;;;0.60;0.50;;;;;;;;;;6299784;28;20081;-84
2022/08/07 16:35:06;;;;;;;0.65;0.40;;;;;;;;;;6316591;28;20131;-80
2022/08/07 16:38:48;;;;;;;1.38;1.20;;;;;;;;;;6315249;28;20036;-82
2022/08/07 16:42:37;;;;;;;0.88;0.50;;;;;;;;;;6315154;28;20044;-78
2022/08/07 16:45:51;;;;;;;2.10;0.40;;;;;;;;;;6297119;28;20130;-78
2022/08/07 16:49:40;;;;;;;1.35;0.40;;;;;;;;;;6316027;28;20123;-79
2022/08/07 16:53:29;;;;;;;1.85;0.60;;;;;;;;;;6305986;28;20040;-79
2022/08/07 16:56:54;;;;;;;0.52;0.30;;;;;;;;;;6327035;28;20044;-80
2022/08/07 17:00:03;;;;;;;1.83;0.40;;;;;;;;;;6323131;28;20125;-78
2022/08/07 17:03:32;;;;;;;0.80;0.67;;;;;;;;;;6324735;28;20054;-79
2022/08/07 17:07:42;;;;;;;0.85;0.40;;;;;;;;;;6299644;28;20515;-80
2022/08/07 17:11:05;;;;;;;2.45;0.50;;;;;;;;;;6324294;28;20043;-78
2022/08/07 17:14:10;;;;;;;1.17;0.45;;;;;;;;;;6311216;28;20076;-79
2022/08/07 17:17:42;;;;;;;0.95;0.70;;;;;;;;;;6318945;28;20040;-79
2022/08/07 17:20:48;;;;;;;0.82;0.50;;;;;;;;;;6288592;28;20044;-80
2022/08/07 17:24:14;;;;;;;0.70;0.43;;;;;;;;;;6316780;28;20066;-78
2022/08/07 17:27:43;;;;;;;0.63;0.50;;;;;;;;;;6309029;28;20059;-79
2022/08/07 17:31:10;;;;;;;1.00;0.70;;;;;;;;;;6255611;28;20172;-78
2022/08/07 17:34:27;;;;;;;2.15;1.60;;;;;;;;;;6312413;28;20059;-81
2022/08/07 17:38:00;;;;;;;0.77;0.75;;;;;;;;;;6311609;28;20043;-78
2022/08/07 17:41:52;;;;;;;1.42;0.93;;;;;;;;;;6309089;28;20245;-83
2022/08/07 17:45:16;;;;;;;0.60;0.55;;;;;;;;;;6315498;28;20044;-83
2022/08/07 17:48:32;;;;;;;1.05;0.80;;;;;;;;;;6302215;28;20055;-83
2022/08/07 17:51:45;;;;;;;0.90;0.50;;;;;;;;;;6319101;28;20093;-83
2022/08/07 17:55:16;;;;;;;0.68;0.55;;;;;;;;;;6333132;28;20054;-82
2022/08/07 17:58:52;;;;;;;1.10;0.73;;;;;;;;;;6318119;28;20159;-85
2022/08/07 18:02:08;;;;;;;0.93;0.70;;;;;;;;;;6312986;28;20060;-85
2022/08/07 18:05:49;;;;;;;0.50;0.50;;;;;;;;;;6312312;28;20045;-85
2022/08/07 18:09:05;;;;;;;1.73;0.70;;;;;;;;;;6307802;28;20528;-83
2022/08/07 18:12:32;;;;;;;0.70;0.70;;;;;;;;;;6290704;28;20085;-86
2022/08/07 18:15:52;;;;;;;1.98;0.65;;;;;;;;;;6290227;28;20055;-84
2022/08/07 18:19:07;;;;;;;1.48;0.60;;;;;;;;;;6285247;28;20411;-83
2022/08/07 18:22:42;;;;;;;1.45;0.65;;;;;;;;;;6296226;28;20043;-83
2022/08/07 18:25:49;;;;;;;0.93;0.80;;;;;;;;;;6281399;28;20048;-83
2022/08/07 18:29:08;;;;;;;2.75;0.90;;;;;;;;;;6282517;28;20063;-87
2022/08/07 18:33:18;;;;;;;0.63;0.60;;;;;;;;;;6291955;28;20082;-86
2022/08/07 18:36:25;;;;;;;0.63;0.60;;;;;;;;;;6290101;28;20052;-81
2022/08/07 18:40:05;;;;;;;1.15;0.63;;;;;;;;;;6287303;28;20051;-81
2022/08/07 18:43:48;;;;;;;1.40;0.77;;;;;;;;;;6287774;28;20063;-86
2022/08/07 18:47:06;;;;;;;1.23;0.60;;;;;;;;;;6304254;28;20138;-81
2022/08/07 18:50:20;;;;;;;1.15;0.70;;;;;;;;;;6313912;28;20044;-81
2022/08/07 18:54:08;;;;;;;1.35;0.60;;;;;;;;;;6297133;28;20044;-83
2022/08/07 18:57:50;;;;;;;0.63;0.50;;;;;;;;;;6290680;28;20147;-86
2022/08/07 19:01:11;;;;;;;0.80;0.80;;;;;;;;;;6284545;28;20047;-85
2022/08/07 19:05:00;;;;;;;0.82;0.82;;;;;;;;;;6277963;28;20070;-85
2022/08/07 19:08:29;;;;;;;0.70;0.70;;;;;;;;;;6292927;28;20044;-87
2022/08/07 19:11:35;;;;;;;1.30;0.82;;;;;;;;;;6293371;28;20039;-86
2022/08/07 19:14:48;;;;;;;2.47;0.60;;;;;;;;;;6282380;28;20133;-85
2022/08/07 19:18:10;;;;;;;0.60;0.60;;;;;;;;;;6288066;28;20159;-85
2022/08/07 19:21:36;;;;;;;1.42;0.88;;;;;;;;;;6312300;28;20053;-87
2022/08/07 19:24:53;;;;;;;1.40;0.90;;;;;;;;;;6307548;28;20044;-86
2022/08/07 19:27:55;;;;;;;2.15;0.80;;;;;;;;;;6295715;28;20047;-85
2022/08/07 19:31:34;;;;;;;0.80;0.70;;;;;;;;;;6276219;28;20734;-86
2022/08/07 19:35:04;;;;;;;2.83;1.00;;;;;;;;;;6280700;28;20051;-85
2022/08/07 19:38:11;;;;;;;1.58;0.80;;;;;;;;;;6279930;28;20523;-87
2022/08/07 19:41:22;;;;;;;1.67;0.88;;;;;;;;;;6287538;28;20044;-84
2022/08/07 19:44:46;;;;;;;2.45;0.85;;;;;;;;;;6275914;28;20040;-85
2022/08/07 19:47:51;;;;;;;1.10;0.80;;;;;;;;;;6317534;28;20043;-84
2022/08/07 19:51:04;;;;;;;1.70;0.70;;;;;;;;;;6274984;28;20059;-84
2022/08/07 19:54:25;;;;;;;1.45;0.70;;;;;;;;;;6313779;28;20246;-87
2022/08/07 19:57:43;;;;;;;1.08;0.82;;;;;;;;;;6288338;28;20044;-86